createdAt,value
2023-05-05T00:03:44.024Z,10.69
2023-05-05T00:07:45.498Z,10.91
2023-05-05T00:11:47.003Z,11.05
2023-05-05T00:15:49.937Z,10.92
2023-05-05T00:19:51.408Z,10.80
2023-05-05T00:23:52.870Z,11.14
2023-05-05T00:27:54.317Z,10.78
2023-05-05T00:31:56.438Z,11.01
2023-05-05T00:35:58.199Z,11.16
2023-05-05T00:40:00.166Z,10.77
2023-05-05T00:44:01.693Z,11.15
2023-05-05T00:48:03.787Z,11.17
2023-05-05T00:52:07.215Z,10.99
2023-05-05T00:56:08.895Z,11.25
2023-05-05T01:00:11.324Z,10.79
2023-05-05T01:04:12.831Z,10.96
2023-05-05T01:08:27.542Z,11.30
2023-05-05T01:12:37.443Z,11.34
2023-05-05T01:16:43.702Z,11.22
2023-05-05T01:20:55.614Z,11.07
2023-05-05T01:25:22.144Z,11.34
2023-05-05T01:29:34.462Z,11.37
2023-05-05T01:33:43.880Z,10.65
2023-05-05T01:38:07.061Z,10.94
2023-05-05T01:42:13.837Z,10.87
2023-05-05T01:46:16.482Z,11.18
2023-05-05T01:50:19.288Z,11.42
2023-05-05T01:54:24.082Z,11.20
2023-05-05T01:58:28.098Z,10.81
2023-05-05T02:02:30.432Z,10.81
2023-05-05T02:06:33.223Z,10.72
2023-05-05T02:10:40.739Z,10.89
2023-05-05T02:14:44.555Z,10.91
2023-05-05T02:18:49.141Z,10.97
2023-05-05T02:22:50.815Z,10.95
2023-05-05T02:26:54.550Z,10.93
2023-05-05T02:30:59.358Z,11.07
2023-05-05T02:35:09.139Z,10.74
2023-05-05T02:39:25.795Z,10.99
2023-05-05T02:43:31.339Z,11.00
2023-05-05T02:47:37.168Z,11.14
2023-05-05T02:51:40.194Z,11.01
2023-05-05T02:56:17.854Z,10.82
2023-05-05T03:00:38.365Z,11.03
2023-05-05T03:05:04.147Z,10.82
2023-05-05T03:09:14.052Z,10.98
2023-05-05T03:13:24.653Z,10.52
2023-05-05T03:17:29.239Z,10.85
2023-05-05T03:21:32.507Z,11.33
2023-05-05T03:25:43.829Z,11.06
2023-05-05T03:29:49.361Z,10.85
2023-05-05T03:33:51.294Z,11.12
2023-05-05T03:37:55.967Z,10.72
2023-05-05T03:41:57.575Z,11.00
2023-05-05T03:46:02.838Z,11.14
2023-05-05T03:50:05.132Z,10.86
2023-05-05T03:54:06.986Z,10.83
2023-05-05T03:58:08.551Z,10.63
2023-05-05T04:02:10.159Z,10.75
2023-05-05T04:06:11.672Z,11.46
2023-05-05T04:10:13.357Z,11.20
2023-05-05T04:14:15.083Z,11.22
2023-05-05T04:18:17.051Z,10.99
2023-05-05T04:22:19.167Z,11.03
2023-05-05T04:26:21.010Z,11.28
2023-05-05T04:30:23.304Z,11.17
2023-05-05T04:34:24.993Z,10.88
2023-05-05T04:38:26.967Z,11.05
2023-05-05T04:42:28.652Z,11.16
2023-05-05T04:46:30.863Z,11.53
2023-05-05T04:50:32.570Z,11.22
2023-05-05T04:54:37.416Z,10.97
2023-05-05T04:58:38.916Z,11.05
2023-05-05T05:02:41.503Z,10.97
2023-05-05T05:06:45.136Z,11.11
2023-05-05T05:10:47.400Z,11.74
2023-05-05T05:14:49.055Z,11.60
2023-05-05T05:18:50.829Z,11.74
2023-05-05T05:22:52.724Z,11.34
2023-05-05T05:26:56.286Z,11.32
2023-05-05T05:30:58.042Z,10.99
2023-05-05T05:35:00.192Z,11.52
2023-05-05T05:39:01.916Z,11.39
2023-05-05T05:43:04.098Z,11.61
2023-05-05T05:47:06.833Z,11.47
2023-05-05T05:51:08.419Z,11.79
2023-05-05T05:55:10.089Z,11.76
2023-05-05T05:59:12.676Z,11.94
2023-05-05T06:03:15.815Z,11.75
2023-05-05T06:07:17.692Z,11.76
2023-05-05T06:11:19.700Z,11.68
2023-05-05T06:15:21.451Z,11.57
2023-05-05T06:19:23.524Z,11.58
2023-05-05T06:23:25.614Z,11.86
2023-05-05T06:27:32.096Z,11.58
2023-05-05T06:31:33.576Z,12.05
2023-05-05T06:35:35.125Z,12.02
2023-05-05T06:39:36.721Z,12.23
2023-05-05T06:43:38.130Z,12.65
2023-05-05T06:47:44.684Z,12.59
2023-05-05T06:51:46.180Z,12.63
2023-05-05T06:55:48.228Z,12.73
2023-05-05T06:59:49.689Z,12.86
2023-05-05T07:03:52.195Z,13.00
2023-05-05T07:07:55.151Z,12.69
2023-05-05T07:11:56.741Z,12.95
2023-05-05T07:15:58.849Z,12.86
2023-05-05T07:20:00.414Z,13.95
2023-05-05T07:24:05.340Z,14.08
2023-05-05T07:28:07.004Z,13.37
2023-05-05T07:32:08.499Z,13.49
2023-05-05T07:36:09.987Z,12.96
2023-05-05T07:40:12.022Z,13.85
2023-05-05T07:44:13.582Z,13.81
2023-05-05T07:48:15.222Z,13.63
2023-05-05T07:52:16.625Z,13.22
2023-05-05T07:56:19.304Z,13.18
2023-05-05T08:00:22.050Z,14.24
2023-05-05T08:04:23.935Z,14.34
2023-05-05T08:08:26.903Z,14.34
2023-05-05T08:12:28.369Z,14.18
2023-05-05T08:16:29.880Z,14.51
2023-05-05T08:20:31.617Z,13.70
2023-05-05T08:24:33.137Z,13.01
2023-05-05T08:28:36.392Z,13.47
2023-05-05T08:32:38.407Z,13.17
2023-05-05T08:36:40.049Z,14.42
2023-05-05T08:40:42.144Z,14.76
2023-05-05T08:44:43.589Z,13.82
2023-05-05T08:48:45.909Z,13.61
2023-05-05T08:52:53.628Z,13.83
2023-05-05T08:56:59.727Z,13.25
2023-05-05T09:01:01.595Z,13.47
2023-05-05T09:05:05.371Z,13.51
2023-05-05T09:09:08.105Z,14.00
2023-05-05T09:13:09.653Z,14.00
2023-05-05T09:17:25.141Z,13.71
2023-05-05T09:21:27.689Z,13.99
2023-05-05T09:25:29.171Z,14.36
2023-05-05T09:29:30.865Z,14.51
2023-05-05T09:33:32.307Z,14.55
2023-05-05T09:37:33.770Z,14.03
2023-05-05T09:41:39.763Z,13.74
2023-05-05T09:45:41.221Z,13.95
2023-05-05T09:49:42.666Z,13.99
2023-05-05T09:53:44.220Z,15.32
2023-05-05T09:57:47.259Z,14.19
2023-05-05T10:01:49.881Z,15.10
2023-05-05T10:05:53.903Z,15.44
2023-05-05T10:09:55.398Z,13.47
2023-05-05T10:13:58.035Z,13.35
2023-05-05T10:18:07.838Z,13.26
2023-05-05T10:22:10.745Z,14.57
2023-05-05T10:26:13.739Z,14.56
2023-05-05T10:30:23.275Z,15.20
2023-05-05T10:35:02.776Z,14.63
2023-05-05T10:39:09.191Z,14.61
2023-05-05T10:43:10.977Z,15.27
2023-05-05T10:47:13.057Z,16.03
2023-05-05T10:51:39.514Z,14.95
2023-05-05T10:56:04.427Z,14.77
2023-05-05T11:00:08.463Z,14.60
2023-05-05T11:04:20.917Z,14.41
2023-05-05T11:08:28.893Z,14.58
2023-05-05T11:12:31.850Z,13.72
2023-05-05T11:16:47.211Z,13.60
2023-05-05T11:20:48.846Z,15.24
2023-05-05T11:24:50.406Z,15.48
2023-05-05T11:28:59.543Z,14.59
2023-05-05T11:33:27.327Z,15.12
2023-05-05T11:37:28.996Z,14.74
2023-05-05T11:41:30.358Z,14.27
2023-05-05T11:45:32.092Z,14.70
2023-05-05T11:49:38.742Z,15.01
2023-05-05T11:53:45.026Z,15.26
2023-05-05T11:57:46.504Z,15.79
2023-05-05T12:01:48.015Z,15.46
2023-05-05T12:05:54.402Z,14.63
2023-05-05T12:09:56.490Z,16.02
2023-05-05T12:14:08.369Z,15.38
2023-05-05T12:18:19.756Z,14.77
2023-05-05T12:22:24.179Z,13.76
2023-05-05T12:26:29.305Z,14.68
2023-05-05T12:30:30.893Z,14.58
2023-05-05T12:34:32.821Z,14.82
2023-05-05T12:38:35.756Z,14.42
2023-05-05T12:42:41.470Z,13.79
2023-05-05T12:46:47.198Z,15.04
2023-05-05T12:50:48.661Z,14.89
2023-05-05T12:54:57.036Z,14.10
2023-05-05T12:58:58.606Z,14.00
2023-05-05T13:03:00.371Z,13.88
2023-05-05T13:07:12.957Z,14.59
2023-05-05T13:11:14.412Z,13.51
2023-05-05T13:15:16.253Z,13.44
2023-05-05T13:19:17.981Z,13.76
2023-05-05T13:23:19.864Z,13.58
2023-05-05T13:27:21.404Z,13.54
2023-05-05T13:31:22.949Z,13.45
2023-05-05T13:35:24.590Z,14.22
2023-05-05T13:39:26.107Z,13.95
2023-05-05T13:43:27.586Z,14.26
2023-05-05T13:47:29.288Z,15.37
2023-05-05T13:51:30.997Z,14.72
2023-05-05T13:55:32.552Z,14.07
2023-05-05T13:59:34.021Z,14.21
2023-05-05T14:03:35.516Z,15.23
2023-05-05T14:07:36.997Z,14.49
2023-05-05T14:11:38.478Z,14.73
2023-05-05T14:15:39.966Z,14.82
2023-05-05T14:19:41.686Z,14.50
2023-05-05T14:23:43.172Z,13.31
2023-05-05T14:27:44.814Z,12.89
2023-05-05T14:31:46.417Z,12.96
2023-05-05T14:35:48.222Z,12.64
2023-05-05T14:39:49.643Z,13.11
2023-05-05T14:43:51.123Z,13.51
2023-05-05T14:47:52.688Z,13.41
2023-05-05T14:51:55.483Z,12.76
2023-05-05T14:55:58.207Z,13.01
2023-05-05T14:59:59.722Z,13.76
2023-05-05T15:04:01.447Z,13.47
2023-05-05T15:08:03.016Z,13.50
2023-05-05T15:12:04.862Z,13.26
2023-05-05T15:16:07.213Z,12.92
2023-05-05T15:20:09.359Z,12.57
2023-05-05T15:24:10.918Z,13.30
2023-05-05T15:28:12.442Z,12.86
2023-05-05T15:32:14.172Z,12.56
2023-05-05T15:36:17.438Z,12.16
2023-05-05T15:40:19.006Z,12.90
2023-05-05T15:44:20.617Z,12.75
2023-05-05T15:48:22.031Z,12.32
2023-05-05T15:52:23.642Z,12.62
2023-05-05T15:56:27.284Z,12.20
2023-05-05T16:00:28.815Z,12.11
2023-05-05T16:04:30.335Z,11.96
2023-05-05T16:08:32.049Z,11.11
2023-05-05T16:12:33.550Z,11.49
2023-05-05T16:16:35.165Z,11.44
2023-05-05T16:20:36.805Z,11.77
2023-05-05T16:24:38.299Z,11.93
2023-05-05T16:28:39.749Z,11.64
2023-05-05T16:32:41.701Z,11.33
2023-05-05T16:36:44.406Z,12.04
2023-05-05T16:40:46.141Z,12.70
2023-05-05T16:44:47.556Z,11.72
2023-05-05T16:48:48.975Z,11.48
2023-05-05T16:52:50.747Z,11.76
2023-05-05T16:56:52.325Z,11.24
2023-05-05T17:00:54.537Z,11.38
2023-05-05T17:04:56.228Z,10.97
2023-05-05T17:08:57.684Z,11.12
2023-05-05T17:12:59.129Z,10.84
2023-05-05T17:17:00.711Z,11.02
2023-05-05T17:21:02.479Z,11.24
2023-05-05T17:25:05.144Z,10.93
2023-05-05T17:29:06.606Z,10.74
2023-05-05T17:33:08.086Z,11.00
2023-05-05T17:37:09.695Z,11.19
2023-05-05T17:41:11.354Z,10.74
2023-05-05T17:45:12.954Z,10.71
2023-05-05T17:49:14.496Z,11.09
2023-05-05T17:53:16.013Z,10.86
2023-05-05T17:57:20.780Z,10.98
2023-05-05T18:01:23.788Z,10.31
2023-05-05T18:05:25.317Z,10.35
2023-05-05T18:09:27.290Z,10.32
2023-05-05T18:13:28.861Z,10.53
2023-05-05T18:17:30.620Z,10.65
2023-05-05T18:21:32.305Z,10.58
2023-05-05T18:25:33.805Z,10.53
2023-05-05T18:29:35.929Z,10.11
2023-05-05T18:33:37.466Z,9.97
2023-05-05T18:37:39.462Z,10.31
2023-05-05T18:41:40.993Z,10.13
2023-05-05T18:45:42.549Z,10.16
2023-05-05T18:49:45.328Z,10.65
2023-05-05T18:53:51.243Z,10.10
2023-05-05T18:57:53.288Z,10.30
2023-05-05T19:01:54.930Z,10.40
2023-05-05T19:05:56.391Z,10.00
2023-05-05T19:09:57.841Z,10.27
2023-05-05T19:13:59.263Z,10.21
2023-05-05T19:18:00.885Z,10.16
2023-05-05T19:22:03.621Z,10.33
2023-05-05T19:26:05.667Z,10.25
2023-05-05T19:30:07.727Z,10.48
2023-05-05T19:34:09.135Z,10.04
2023-05-05T19:38:10.910Z,9.87
2023-05-05T19:42:12.338Z,11.00
2023-05-05T19:46:14.443Z,10.29
2023-05-05T19:50:16.046Z,10.31
2023-05-05T19:54:18.072Z,9.58
2023-05-05T19:58:19.510Z,10.07
2023-05-05T20:02:26.481Z,10.21
2023-05-05T20:06:28.003Z,10.15
2023-05-05T20:10:29.484Z,10.13
2023-05-05T20:14:30.926Z,10.10
2023-05-05T20:18:32.515Z,10.02
2023-05-05T20:22:34.342Z,10.52
2023-05-05T20:26:36.564Z,10.15
2023-05-05T20:30:38.095Z,10.33
2023-05-05T20:34:39.588Z,10.09
2023-05-05T20:38:41.108Z,10.41
2023-05-05T20:42:42.724Z,10.37
2023-05-05T20:46:44.365Z,10.47
2023-05-05T20:50:46.021Z,10.66
2023-05-05T20:54:47.478Z,10.43
2023-05-05T20:58:49.023Z,10.68
2023-05-05T21:02:50.722Z,10.47
2023-05-05T21:06:52.233Z,10.28
2023-05-05T21:10:53.674Z,10.37
2023-05-05T21:14:58.426Z,10.11
2023-05-05T21:18:59.922Z,10.23
2023-05-05T21:23:01.553Z,10.17
2023-05-05T21:27:03.098Z,10.13
2023-05-05T21:31:21.318Z,10.32
2023-05-05T21:35:23.815Z,10.32
2023-05-05T21:39:25.426Z,10.09
2023-05-05T21:43:28.639Z,10.10
2023-05-05T21:47:30.108Z,10.66
2023-05-05T21:51:31.917Z,10.65
2023-05-05T21:55:33.334Z,10.71
2023-05-05T21:59:34.758Z,10.73
2023-05-05T22:03:36.270Z,10.72
2023-05-05T22:07:37.994Z,10.34
2023-05-05T22:11:39.437Z,10.66
2023-05-05T22:15:46.822Z,10.59
2023-05-05T22:19:50.477Z,10.52
2023-05-05T22:23:52.141Z,10.45
2023-05-05T22:27:53.659Z,10.56
2023-05-05T22:31:55.155Z,10.53
2023-05-05T22:35:57.030Z,11.03
2023-05-05T22:39:58.498Z,10.65
2023-05-05T22:43:59.966Z,10.47
2023-05-05T22:48:01.675Z,10.54
2023-05-05T22:52:03.414Z,10.91
2023-05-05T22:56:05.322Z,10.68
2023-05-05T23:00:08.772Z,10.87
2023-05-05T23:04:10.465Z,10.63
2023-05-05T23:08:11.932Z,10.53
2023-05-05T23:12:13.647Z,10.66
2023-05-05T23:16:15.331Z,10.32
2023-05-05T23:20:17.097Z,11.03
2023-05-05T23:24:18.807Z,10.89
2023-05-05T23:28:20.317Z,10.45
2023-05-05T23:32:21.920Z,10.47
2023-05-05T23:36:23.387Z,10.66
2023-05-05T23:40:24.900Z,10.19
2023-05-05T23:44:27.544Z,10.80
2023-05-05T23:48:28.972Z,10.39
2023-05-05T23:52:30.430Z,10.01
2023-05-05T23:56:31.829Z,9.75
